createdAt,value
2023-02-14T13:35:54.845Z,36.33
2023-02-14T13:40:45.244Z,34.53
2023-02-14T13:45:59.529Z,35.92
2023-02-14T13:51:00.000Z,36.20
2023-02-14T13:55:56.122Z,32.40
2023-02-14T14:00:49.541Z,41.15
2023-02-14T14:06:09.960Z,33.30
2023-02-14T14:11:10.549Z,37.88
2023-02-14T14:16:35.341Z,34.72
2023-02-14T14:21:35.176Z,34.97
2023-02-14T14:26:39.280Z,33.95
2023-02-14T14:31:33.174Z,31.63
2023-02-14T14:36:32.348Z,34.95
2023-02-14T14:41:32.887Z,40.63
2023-02-14T14:46:25.435Z,33.83
2023-02-14T14:51:28.602Z,32.72
2023-02-14T14:56:36.565Z,39.75
2023-02-14T15:01:37.519Z,34.75
2023-02-14T15:06:30.372Z,36.13
2023-02-14T15:11:43.870Z,36.92
2023-02-14T15:16:46.847Z,36.83
2023-02-14T15:21:44.590Z,36.35
2023-02-14T15:26:42.558Z,33.90
2023-02-14T15:31:38.920Z,35.63
2023-02-14T15:36:34.233Z,35.97
2023-02-14T15:41:29.012Z,35.75
2023-02-14T15:46:30.641Z,34.00
2023-02-14T15:51:30.348Z,33.78
2023-02-14T15:56:32.682Z,37.13
2023-02-14T16:01:27.757Z,37.65
2023-02-14T16:06:33.622Z,39.08
2023-02-14T16:11:39.188Z,37.13
2023-02-14T16:17:02.483Z,36.13
2023-02-14T16:22:00.136Z,33.78
2023-02-14T16:26:56.767Z,40.20
2023-02-14T16:32:15.069Z,36.38
2023-02-14T16:37:12.340Z,36.72
2023-02-14T16:42:12.190Z,36.75
2023-02-14T19:00:22.262Z,47.03
2023-02-14T19:05:20.180Z,45.43
2023-02-14T19:10:20.750Z,44.95
2023-02-14T19:15:14.525Z,49.85
2023-02-14T19:20:13.354Z,46.08
2023-02-14T19:25:10.364Z,47.78
2023-02-14T19:30:04.052Z,45.95
2023-02-14T19:35:07.275Z,49.97
2023-02-14T19:40:00.760Z,47.50
